Time,TemperatureF,DewpointF,PressureIn,WindDirection,WindDirectionDegrees,WindSpeedMPH,WindSpeedGustMPH,Humidity,HourlyPrecipIn,Conditions,Clouds,dailyrainin,SoftwareType,DateUTC
2013-03-26 00:01:00,62.0,25.0,29.93,West,275,13.0,23.0,24,0.00,,,0.00,,2013-03-26 07:01:00,
2013-03-26 00:11:00,62.0,25.0,29.93,West,275,13.0,23.0,24,0.00,,,0.00,,2013-03-26 07:11:00,
2013-03-26 00:22:00,62.0,25.0,29.93,West,272,8.0,24.0,24,0.00,,,0.00,,2013-03-26 07:22:00,
2013-03-26 00:32:00,62.0,24.0,29.93,WSW,254,7.0,21.0,23,0.00,,,0.00,,2013-03-26 07:32:00,
2013-03-26 00:42:00,62.0,24.0,29.93,WSW,254,7.0,21.0,23,0.00,,,0.00,,2013-03-26 07:42:00,
2013-03-26 00:52:00,61.0,24.0,29.92,SW,228,8.0,18.0,24,0.00,,,0.00,,2013-03-26 07:52:00,
2013-03-26 01:01:00,60.0,24.0,29.91,SW,215,9.0,16.0,25,0.00,,,0.00,,2013-03-26 08:01:00,
2013-03-26 01:12:00,60.0,24.0,29.91,SW,215,9.0,16.0,25,0.00,,,0.00,,2013-03-26 08:12:00,
2013-03-26 01:21:00,60.0,24.0,29.92,SW,218,11.0,22.0,25,0.00,,,0.00,,2013-03-26 08:21:00,
2013-03-26 01:31:00,60.0,25.0,29.91,SW,223,10.0,16.0,26,0.00,,,0.00,,2013-03-26 08:31:00,
2013-03-26 01:41:00,60.0,25.0,29.91,SW,223,10.0,16.0,26,0.00,,,0.00,,2013-03-26 08:41:00,
2013-03-26 01:52:00,60.0,25.0,29.92,SW,228,8.0,21.0,26,0.00,,,0.00,,2013-03-26 08:52:00,
2013-03-26 02:01:00,60.0,26.0,29.92,SW,221,9.0,17.0,27,0.00,,,0.00,,2013-03-26 09:01:00,
2013-03-26 02:11:00,60.0,26.0,29.92,SW,221,9.0,17.0,27,0.00,,,0.00,,2013-03-26 09:11:00,
2013-03-26 02:21:00,60.0,26.0,29.92,WSW,258,8.0,13.0,27,0.00,,,0.00,,2013-03-26 09:21:00,
2013-03-26 02:32:00,60.0,27.0,29.92,WSW,245,6.0,14.0,28,0.00,,,0.00,,2013-03-26 09:32:00,
2013-03-26 02:42:00,60.0,27.0,29.92,WSW,245,6.0,14.0,28,0.00,,,0.00,,2013-03-26 09:42:00,
2013-03-26 02:52:00,60.0,28.0,29.91,WSW,251,6.0,15.0,29,0.00,,,0.00,,2013-03-26 09:52:00,
2013-03-26 03:02:00,60.0,28.0,29.91,West,277,7.0,18.0,30,0.00,,,0.00,,2013-03-26 10:02:00,
2013-03-26 03:12:00,60.0,28.0,29.91,West,277,7.0,18.0,30,0.00,,,0.00,,2013-03-26 10:12:00,
2013-03-26 03:22:00,60.0,30.0,29.91,WNW,282,10.0,17.0,32,0.00,,,0.00,,2013-03-26 10:22:00,
2013-03-26 03:32:00,60.0,30.0,29.90,West,277,11.0,24.0,32,0.00,,,0.00,,2013-03-26 10:32:00,
2013-03-26 03:42:00,60.0,30.0,29.90,West,277,11.0,24.0,32,0.00,,,0.00,,2013-03-26 10:42:00,
2013-03-26 03:52:00,60.0,32.0,29.90,West,269,11.0,21.0,34,0.00,,,0.00,,2013-03-26 10:52:00,
2013-03-26 04:02:00,59.0,31.0,29.90,West,278,9.0,17.0,35,0.00,,,0.00,,2013-03-26 11:02:00,
2013-03-26 04:11:00,59.0,31.0,29.90,West,278,9.0,17.0,35,0.00,,,0.00,,2013-03-26 11:11:00,
2013-03-26 04:21:00,59.0,31.0,29.90,WNW,284,10.0,16.0,35,0.00,,,0.00,,2013-03-26 11:21:00,
2013-03-26 04:31:00,59.0,31.0,29.90,WNW,282,8.0,16.0,35,0.00,,,0.00,,2013-03-26 11:31:00,
2013-03-26 04:42:00,59.0,31.0,29.90,WNW,282,8.0,16.0,35,0.00,,,0.00,,2013-03-26 11:42:00,
2013-03-26 04:52:00,59.0,31.0,29.90,West,270,7.0,16.0,35,0.00,,,0.00,,2013-03-26 11:52:00,
2013-03-26 05:02:00,59.0,31.0,29.90,West,270,7.0,16.0,35,0.00,,,0.00,,2013-03-26 12:02:00,
2013-03-26 05:11:00,59.0,31.0,29.90,WNW,286,14.0,19.0,35,0.00,,,0.00,,2013-03-26 12:11:00,
2013-03-26 05:21:00,59.0,32.0,29.90,WNW,293,8.0,14.0,36,0.00,,,0.00,,2013-03-26 12:21:00,
2013-03-26 05:32:00,58.0,33.0,29.90,WNW,294,7.0,12.0,38,0.00,,,0.00,,2013-03-26 12:32:00,
2013-03-26 05:41:00,58.0,33.0,29.90,WNW,294,7.0,12.0,38,0.00,,,0.00,,2013-03-26 12:41:00,
2013-03-26 05:52:00,58.0,33.0,29.89,WNW,286,11.0,16.0,39,0.00,,,0.00,,2013-03-26 12:52:00,
2013-03-26 06:02:00,58.0,33.0,29.89,WNW,298,13.0,21.0,39,0.00,,,0.00,,2013-03-26 13:02:00,
2013-03-26 06:11:00,58.0,33.0,29.89,WNW,298,13.0,21.0,39,0.00,,,0.00,,2013-03-26 13:11:00,
2013-03-26 06:22:00,58.0,34.0,29.90,WNW,294,15.0,23.0,40,0.00,,,0.00,,2013-03-26 13:22:00,
2013-03-26 06:31:00,58.0,34.0,29.89,WNW,285,13.0,24.0,40,0.00,,,0.00,,2013-03-26 13:31:00,
2013-03-26 06:41:00,58.0,34.0,29.89,WNW,285,13.0,24.0,40,0.00,,,0.00,,2013-03-26 13:41:00,
2013-03-26 06:52:00,57.0,34.0,29.89,WNW,282,12.0,21.0,42,0.00,,,0.00,,2013-03-26 13:52:00,
2013-03-26 07:01:00,58.0,34.0,29.90,WNW,289,17.0,28.0,41,0.00,,,0.00,,2013-03-26 14:01:00,
2013-03-26 07:22:00,57.0,34.0,29.90,WNW,289,21.0,27.0,42,0.00,,,0.00,,2013-03-26 14:22:00,
2013-03-26 07:32:00,58.0,34.0,29.91,WNW,289,19.0,23.0,41,0.00,,,0.00,,2013-03-26 14:32:00,
2013-03-26 07:42:00,58.0,34.0,29.91,WNW,289,19.0,23.0,41,0.00,,,0.00,,2013-03-26 14:42:00,
2013-03-26 07:52:00,58.0,35.0,29.91,West,262,11.0,21.0,42,0.00,,,0.00,,2013-03-26 14:52:00,
2013-03-26 08:02:00,59.0,35.0,29.92,WSW,252,8.0,14.0,40,0.00,,,0.00,,2013-03-26 15:02:00,
2013-03-26 08:11:00,59.0,35.0,29.92,WSW,252,8.0,14.0,40,0.00,,,0.00,,2013-03-26 15:11:00,
2013-03-26 08:21:00,60.0,34.0,29.92,West,263,7.0,13.0,37,0.00,,,0.00,,2013-03-26 15:21:00,
2013-03-26 08:32:00,61.0,33.0,29.92,West,269,7.0,15.0,35,0.00,,,0.00,,2013-03-26 15:32:00,
2013-03-26 08:42:00,61.0,33.0,29.92,West,269,7.0,15.0,35,0.00,,,0.00,,2013-03-26 15:42:00,
2013-03-26 08:52:00,62.0,33.0,29.92,West,279,7.0,11.0,34,0.00,,,0.00,,2013-03-26 15:52:00,
2013-03-26 09:02:00,62.0,32.0,29.92,West,269,8.0,16.0,32,0.00,,,0.00,,2013-03-26 16:02:00,
2013-03-26 09:12:00,62.0,32.0,29.92,West,269,8.0,16.0,32,0.00,,,0.00,,2013-03-26 16:12:00,
2013-03-26 09:22:00,63.0,32.0,29.92,WNW,284,10.0,17.0,31,0.00,,,0.00,,2013-03-26 16:22:00,
2013-03-26 09:32:00,63.0,31.0,29.92,WNW,290,16.0,21.0,30,0.00,,,0.00,,2013-03-26 16:32:00,
2013-03-26 09:42:00,63.0,31.0,29.92,WNW,290,16.0,21.0,30,0.00,,,0.00,,2013-03-26 16:42:00,
2013-03-26 09:53:00,64.0,30.0,29.92,WNW,293,13.0,20.0,28,0.00,,,0.00,,2013-03-26 16:53:00,
2013-03-26 10:02:00,65.0,32.0,29.92,NW,307,12.0,22.0,29,0.00,,,0.00,,2013-03-26 17:02:00,
2013-03-26 10:12:00,65.0,32.0,29.92,NW,307,12.0,22.0,29,0.00,,,0.00,,2013-03-26 17:12:00,
2013-03-26 10:22:00,65.0,32.0,29.92,WNW,295,12.0,24.0,29,0.00,,,0.00,,2013-03-26 17:22:00,
2013-03-26 10:32:00,66.0,31.0,29.92,WNW,290,16.0,24.0,27,0.00,,,0.00,,2013-03-26 17:32:00,
2013-03-26 10:41:00,66.0,31.0,29.92,WNW,290,16.0,24.0,27,0.00,,,0.00,,2013-03-26 17:41:00,
2013-03-26 10:52:00,66.0,29.0,29.91,WNW,287,17.0,24.0,25,0.00,,,0.00,,2013-03-26 17:52:00,
2013-03-26 11:01:00,67.0,31.0,29.91,WNW,288,15.0,21.0,26,0.00,,,0.00,,2013-03-26 18:01:00,
2013-03-26 11:12:00,67.0,31.0,29.91,WNW,288,15.0,21.0,26,0.00,,,0.00,,2013-03-26 18:12:00,
2013-03-26 11:22:00,68.0,30.0,29.91,West,272,12.0,21.0,24,0.00,,,0.00,,2013-03-26 18:22:00,
2013-03-26 11:33:00,68.0,28.0,29.91,West,270,12.0,23.0,22,0.00,,,0.00,,2013-03-26 18:33:00,
2013-03-26 11:41:00,68.0,28.0,29.91,West,270,12.0,23.0,22,0.00,,,0.00,,2013-03-26 18:41:00,
2013-03-26 11:52:00,69.0,29.0,29.91,WNW,292,13.0,22.0,22,0.00,,,0.00,,2013-03-26 18:52:00,
2013-03-26 12:01:00,70.0,23.0,29.91,West,278,9.0,24.0,17,0.00,,,0.00,,2013-03-26 19:01:00,
2013-03-26 12:11:00,70.0,23.0,29.91,West,278,9.0,24.0,17,0.00,,,0.00,,2013-03-26 19:11:00,
2013-03-26 12:22:00,70.0,25.0,29.91,West,275,10.0,22.0,18,0.00,,,0.00,,2013-03-26 19:22:00,
2013-03-26 12:31:00,70.0,22.0,29.90,WNW,286,17.0,27.0,16,0.00,,,0.00,,2013-03-26 19:31:00,
2013-03-26 12:42:00,70.0,22.0,29.90,WNW,286,17.0,27.0,16,0.00,,,0.00,,2013-03-26 19:42:00,
2013-03-26 12:53:00,71.0,25.0,29.91,WNW,289,14.0,26.0,18,0.00,,,0.00,,2013-03-26 19:53:00,
2013-03-26 13:01:00,72.0,26.0,29.90,WNW,287,13.0,25.0,18,0.00,,,0.00,,2013-03-26 20:01:00,
2013-03-26 13:11:00,72.0,26.0,29.90,WNW,287,13.0,25.0,18,0.00,,,0.00,,2013-03-26 20:11:00,
2013-03-26 13:21:00,71.0,27.0,29.89,WNW,292,14.0,24.0,19,0.00,,,0.00,,2013-03-26 20:21:00,
2013-03-26 13:31:00,72.0,27.0,29.89,WNW,294,15.0,25.0,19,0.00,,,0.00,,2013-03-26 20:31:00,
2013-03-26 13:42:00,72.0,27.0,29.89,WNW,294,15.0,25.0,19,0.00,,,0.00,,2013-03-26 20:42:00,
2013-03-26 13:52:00,72.0,27.0,29.88,West,274,13.0,24.0,19,0.00,,,0.00,,2013-03-26 20:52:00,
2013-03-26 14:11:00,73.0,26.0,29.88,WNW,296,17.0,29.0,17,0.00,,,0.00,,2013-03-26 21:11:00,
2013-03-26 14:22:00,73.0,26.0,29.88,WNW,296,17.0,29.0,17,0.00,,,0.00,,2013-03-26 21:22:00,
2013-03-26 14:32:00,73.0,26.0,29.88,WNW,296,17.0,29.0,17,0.00,,,0.00,,2013-03-26 21:32:00,
2013-03-26 14:42:00,73.0,26.0,29.88,WNW,296,17.0,29.0,17,0.00,,,0.00,,2013-03-26 21:42:00,
2013-03-26 15:22:00,73.0,28.0,29.86,WNW,297,15.0,24.0,19,0.00,,,0.00,,2013-03-26 22:22:00,
2013-03-26 15:33:00,73.0,28.0,29.86,WNW,297,15.0,24.0,19,0.00,,,0.00,,2013-03-26 22:33:00,
2013-03-26 15:42:00,73.0,28.0,29.86,WNW,297,15.0,24.0,19,0.00,,,0.00,,2013-03-26 22:42:00,
2013-03-26 16:22:00,71.0,30.0,29.85,West,269,16.0,27.0,22,0.00,,,0.00,,2013-03-26 23:22:00,
2013-03-26 16:32:00,71.0,30.0,29.85,West,275,18.0,27.0,22,0.00,,,0.00,,2013-03-26 23:32:00,
2013-03-26 16:42:00,71.0,30.0,29.85,West,275,18.0,27.0,22,0.00,,,0.00,,2013-03-26 23:42:00,
2013-03-26 16:52:00,70.0,29.0,29.85,WNW,284,18.0,27.0,22,0.00,,,0.00,,2013-03-26 23:52:00,
2013-03-26 17:01:00,71.0,30.0,29.85,WNW,287,14.0,22.0,22,0.00,,,0.00,,2013-03-27 00:01:00,
2013-03-26 17:11:00,71.0,30.0,29.85,WNW,287,14.0,22.0,22,0.00,,,0.00,,2013-03-27 00:11:00,
2013-03-26 17:21:00,70.0,30.0,29.85,West,269,15.0,21.0,23,0.00,,,0.00,,2013-03-27 00:21:00,
2013-03-26 17:32:00,70.0,30.0,29.85,West,267,10.0,24.0,23,0.00,,,0.00,,2013-03-27 00:32:00,
2013-03-26 17:42:00,70.0,30.0,29.85,West,267,10.0,24.0,23,0.00,,,0.00,,2013-03-27 00:42:00,
2013-03-26 17:52:00,70.0,30.0,29.85,WSW,255,12.0,21.0,23,0.00,,,0.00,,2013-03-27 00:52:00,
2013-03-26 18:01:00,69.0,30.0,29.85,West,268,11.0,21.0,23,0.00,,,0.00,,2013-03-27 01:01:00,
2013-03-26 18:11:00,69.0,30.0,29.85,West,268,11.0,21.0,23,0.00,,,0.00,,2013-03-27 01:11:00,
2013-03-26 18:22:00,68.0,30.0,29.85,West,264,13.0,23.0,24,0.00,,,0.00,,2013-03-27 01:22:00,
2013-03-26 18:32:00,68.0,30.0,29.85,West,277,9.0,23.0,24,0.00,,,0.00,,2013-03-27 01:32:00,
2013-03-26 18:41:00,68.0,30.0,29.85,West,277,9.0,23.0,24,0.00,,,0.00,,2013-03-27 01:41:00,
2013-03-26 18:52:00,67.0,28.0,29.85,West,263,12.0,21.0,23,0.00,,,0.00,,2013-03-27 01:52:00,
2013-03-26 19:01:00,66.0,29.0,29.85,SW,232,11.0,24.0,25,0.00,,,0.00,,2013-03-27 02:01:00,
2013-03-26 19:12:00,66.0,29.0,29.85,SW,232,11.0,24.0,25,0.00,,,0.00,,2013-03-27 02:12:00,
2013-03-26 19:21:00,65.0,27.0,29.85,SW,228,18.0,30.0,24,0.00,,,0.00,,2013-03-27 02:21:00,
2013-03-26 19:31:00,64.0,28.0,29.85,SW,224,22.0,31.0,26,0.00,,,0.00,,2013-03-27 02:31:00,
2013-03-26 19:42:00,64.0,28.0,29.85,SW,224,22.0,31.0,26,0.00,,,0.00,,2013-03-27 02:42:00,
2013-03-26 19:52:00,64.0,31.0,29.85,SW,225,22.0,30.0,29,0.00,,,0.00,,2013-03-27 02:52:00,
2013-03-26 20:01:00,63.0,31.0,29.85,SW,218,14.0,28.0,30,0.00,,,0.00,,2013-03-27 03:01:00,
2013-03-26 20:11:00,63.0,31.0,29.85,SW,218,14.0,28.0,30,0.00,,,0.00,,2013-03-27 03:11:00,
2013-03-26 20:21:00,63.0,33.0,29.86,SW,230,15.0,24.0,33,0.00,,,0.00,,2013-03-27 03:21:00,
2013-03-26 20:32:00,62.0,35.0,29.87,WSW,256,11.0,23.0,37,0.00,,,0.00,,2013-03-27 03:32:00,
2013-03-26 20:42:00,62.0,35.0,29.87,WSW,256,11.0,23.0,37,0.00,,,0.00,,2013-03-27 03:42:00,
2013-03-26 20:53:00,62.0,35.0,29.87,SW,233,12.0,28.0,37,0.00,,,0.00,,2013-03-27 03:53:00,
2013-03-26 21:02:00,62.0,36.0,29.87,WSW,238,16.0,28.0,38,0.00,,,0.00,,2013-03-27 04:02:00,
2013-03-26 21:12:00,62.0,36.0,29.87,WSW,238,16.0,28.0,38,0.00,,,0.00,,2013-03-27 04:12:00,
2013-03-26 21:22:00,61.0,35.0,29.87,WSW,237,10.0,26.0,38,0.00,,,0.00,,2013-03-27 04:22:00,
2013-03-26 21:32:00,61.0,36.0,29.88,WSW,237,11.0,21.0,39,0.00,,,0.00,,2013-03-27 04:32:00,
2013-03-26 21:42:00,61.0,36.0,29.88,WSW,237,11.0,21.0,39,0.00,,,0.00,,2013-03-27 04:42:00,
2013-03-26 21:52:00,61.0,36.0,29.88,West,271,17.0,27.0,39,0.00,,,0.00,,2013-03-27 04:52:00,
2013-03-26 22:02:00,60.0,36.0,29.88,West,264,14.0,25.0,40,0.00,,,0.00,,2013-03-27 05:02:00,
2013-03-26 22:12:00,60.0,36.0,29.88,West,264,14.0,25.0,40,0.00,,,0.00,,2013-03-27 05:12:00,
2013-03-26 22:22:00,60.0,36.0,29.89,SW,230,11.0,18.0,41,0.00,,,0.00,,2013-03-27 05:22:00,
2013-03-26 22:32:00,59.0,36.0,29.89,WSW,246,7.0,18.0,42,0.00,,,0.00,,2013-03-27 05:32:00,
2013-03-26 22:42:00,59.0,36.0,29.89,WSW,246,7.0,18.0,42,0.00,,,0.00,,2013-03-27 05:42:00,
2013-03-26 22:52:00,59.0,37.0,29.89,WSW,239,4.0,12.0,43,0.00,,,0.00,,2013-03-27 05:52:00,
2013-03-26 23:01:00,59.0,37.0,29.90,SW,229,5.0,15.0,43,0.00,,,0.00,,2013-03-27 06:01:00,
2013-03-26 23:11:00,59.0,37.0,29.90,SW,229,5.0,15.0,43,0.00,,,0.00,,2013-03-27 06:11:00,
2013-03-26 23:22:00,59.0,37.0,29.90,WSW,254,7.0,15.0,44,0.00,,,0.00,,2013-03-27 06:22:00,
2013-03-26 23:31:00,59.0,37.0,29.90,West,260,9.0,15.0,44,0.00,,,0.00,,2013-03-27 06:31:00,
2013-03-26 23:42:00,59.0,37.0,29.90,West,260,9.0,15.0,44,0.00,,,0.00,,2013-03-27 06:42:00,
2013-03-26 23:52:00,59.0,38.0,29.90,WSW,239,2.0,11.0,45,0.00,,,0.00,,2013-03-27 06:52:00,